EmailTwitter


Observations de surface / Québec / LFRQ

Régions: Québec | Canada | États-Unis | Europe | France | UK | Elsewhere
Station
Affichage
Infos & localisation pour LFRQ | Aide pour décoder les METARs

Observations prises le 2017-02-24 à 10H00 UTC à QUIMPER/PLUGUFFA, FR (LFRQ)

Température: 9.0 Celsius

Point de rosée: 4.0 Celsius

Humidité relative: 71%

Facteur vent: 7.

Vents: Nord-ouest à 15 km/h ou 8 noeuds.

Pression au niveau moyen de la mer: 102.20 kilopascals.

Observation METAR:

LFRQ 241000Z AUTO 33008KT 300V020 CAVOK 09/04 Q1022 NOSIG=